sensor_id;sensor_type;location;lat;lon;timestamp;temperature;humidity
69679;DHT22;56915;52.046;4.854;2023-03-01T00:01:04;-0.50;99.90
69679;DHT22;56915;52.046;4.854;2023-03-01T00:03:32;-0.50;99.90
69679;DHT22;56915;52.046;4.854;2023-03-01T00:05:59;-0.50;99.90
69679;DHT22;56915;52.046;4.854;2023-03-01T00:08:27;-0.40;99.90
69679;DHT22;56915;52.046;4.854;2023-03-01T00:11:18;-0.40;99.90
69679;DHT22;56915;52.046;4.854;2023-03-01T00:13:46;-0.40;99.90
69679;DHT22;56915;52.046;4.854;2023-03-01T00:16:17;-0.40;99.90
69679;DHT22;56915;52.046;4.854;2023-03-01T00:18:45;-0.50;99.90
69679;DHT22;56915;52.046;4.854;2023-03-01T00:21:12;-0.50;99.90
69679;DHT22;56915;52.046;4.854;2023-03-01T00:23:39;-0.50;99.90
69679;DHT22;56915;52.046;4.854;2023-03-01T00:26:09;-0.60;99.90
69679;DHT22;56915;52.046;4.854;2023-03-01T00:28:36;-0.70;99.90
69679;DHT22;56915;52.046;4.854;2023-03-01T00:31:09;-0.70;99.90
69679;DHT22;56915;52.046;4.854;2023-03-01T00:33:36;-0.80;99.90
69679;DHT22;56915;52.046;4.854;2023-03-01T00:36:03;-0.80;99.90
69679;DHT22;56915;52.046;4.854;2023-03-01T00:38:33;-0.70;99.90
69679;DHT22;56915;52.046;4.854;2023-03-01T00:41:09;-0.70;99.90
69679;DHT22;56915;52.046;4.854;2023-03-01T00:43:36;-0.70;99.90
69679;DHT22;56915;52.046;4.854;2023-03-01T00:46:14;-0.80;99.90
69679;DHT22;56915;52.046;4.854;2023-03-01T00:48:42;-0.80;99.90
69679;DHT22;56915;52.046;4.854;2023-03-01T00:51:14;-0.70;99.90
69679;DHT22;56915;52.046;4.854;2023-03-01T00:53:42;-0.70;99.90
69679;DHT22;56915;52.046;4.854;2023-03-01T00:56:10;-0.70;99.90
69679;DHT22;56915;52.046;4.854;2023-03-01T00:58:38;-0.70;99.90
69679;DHT22;56915;52.046;4.854;2023-03-01T01:01:11;-0.70;99.90
69679;DHT22;56915;52.046;4.854;2023-03-01T01:06:20;-0.80;99.90
69679;DHT22;56915;52.046;4.854;2023-03-01T01:08:48;-0.80;99.90
69679;DHT22;56915;52.046;4.854;2023-03-01T01:11:15;-0.80;99.90
69679;DHT22;56915;52.046;4.854;2023-03-01T01:13:44;-0.80;99.90
69679;DHT22;56915;52.046;4.854;2023-03-01T01:16:12;-0.70;99.90
69679;DHT22;56915;52.046;4.854;2023-03-01T01:18:39;-0.70;99.90
69679;DHT22;56915;52.046;4.854;2023-03-01T01:21:09;-0.70;99.90
69679;DHT22;56915;52.046;4.854;2023-03-01T01:23:38;-0.80;99.90
69679;DHT22;56915;52.046;4.854;2023-03-01T01:26:11;-0.80;99.90
69679;DHT22;56915;52.046;4.854;2023-03-01T01:28:38;-0.90;99.90
69679;DHT22;56915;52.046;4.854;2023-03-01T01:31:06;-0.90;99.90
69679;DHT22;56915;52.046;4.854;2023-03-01T01:33:33;-0.90;99.90
69679;DHT22;56915;52.046;4.854;2023-03-01T01:36:00;-0.90;99.90
69679;DHT22;56915;52.046;4.854;2023-03-01T01:38:26;-0.80;99.90
69679;DHT22;56915;52.046;4.854;2023-03-01T01:40:53;-0.80;99.90
69679;DHT22;56915;52.046;4.854;2023-03-01T01:43:47;-0.80;99.90
69679;DHT22;56915;52.046;4.854;2023-03-01T01:46:31;-0.70;99.90
69679;DHT22;56915;52.046;4.854;2023-03-01T01:49:06;-0.70;99.90
69679;DHT22;56915;52.046;4.854;2023-03-01T01:51:39;-0.80;99.90
69679;DHT22;56915;52.046;4.854;2023-03-01T01:54:29;-0.80;99.90
69679;DHT22;56915;52.046;4.854;2023-03-01T01:57:03;-0.80;99.90
69679;DHT22;56915;52.046;4.854;2023-03-01T01:59:33;-0.70;99.90
69679;DHT22;56915;52.046;4.854;2023-03-01T02:02:02;-0.70;99.90
69679;DHT22;56915;52.046;4.854;2023-03-01T02:04:31;-0.80;99.90
69679;DHT22;56915;52.046;4.854;2023-03-01T02:07:03;-0.80;99.90
69679;DHT22;56915;52.046;4.854;2023-03-01T02:09:32;-0.90;99.90
69679;DHT22;56915;52.046;4.854;2023-03-01T02:12:00;-1.00;99.90
69679;DHT22;56915;52.046;4.854;2023-03-01T02:14:28;-1.00;99.90
69679;DHT22;56915;52.046;4.854;2023-03-01T02:16:55;-1.00;99.90
69679;DHT22;56915;52.046;4.854;2023-03-01T02:19:52;-1.00;99.90
69679;DHT22;56915;52.046;4.854;2023-03-01T02:22:28;-1.00;99.90
69679;DHT22;56915;52.046;4.854;2023-03-01T02:28:40;-1.00;99.90
69679;DHT22;56915;52.046;4.854;2023-03-01T02:30:43;-1.10;99.90
69679;DHT22;56915;52.046;4.854;2023-03-01T02:33:31;-1.10;99.90
69679;DHT22;56915;52.046;4.854;2023-03-01T02:36:03;-1.10;99.90
69679;DHT22;56915;52.046;4.854;2023-03-01T02:38:32;-1.10;99.90
69679;DHT22;56915;52.046;4.854;2023-03-01T02:41:00;-1.00;99.90
69679;DHT22;56915;52.046;4.854;2023-03-01T02:43:31;-1.00;99.90
69679;DHT22;56915;52.046;4.854;2023-03-01T02:46:06;-1.10;99.90
69679;DHT22;56915;52.046;4.854;2023-03-01T02:48:51;-1.20;99.90
69679;DHT22;56915;52.046;4.854;2023-03-01T02:56:45;-1.00;99.90
69679;DHT22;56915;52.046;4.854;2023-03-01T02:59:18;-1.00;99.90
69679;DHT22;56915;52.046;4.854;2023-03-01T03:01:46;-1.00;99.90
69679;DHT22;56915;52.046;4.854;2023-03-01T03:04:16;-1.10;99.90
69679;DHT22;56915;52.046;4.854;2023-03-01T03:06:49;-1.10;99.90
69679;DHT22;56915;52.046;4.854;2023-03-01T03:09:17;-1.20;99.90
69679;DHT22;56915;52.046;4.854;2023-03-01T03:11:45;-1.20;99.90
69679;DHT22;56915;52.046;4.854;2023-03-01T03:14:14;-1.40;99.90
69679;DHT22;56915;52.046;4.854;2023-03-01T03:16:46;-1.40;99.90
69679;DHT22;56915;52.046;4.854;2023-03-01T03:19:13;-1.50;99.90
69679;DHT22;56915;52.046;4.854;2023-03-01T03:21:40;-1.60;99.90
69679;DHT22;56915;52.046;4.854;2023-03-01T03:24:07;-1.50;99.90
69679;DHT22;56915;52.046;4.854;2023-03-01T03:26:33;-1.50;99.90
69679;DHT22;56915;52.046;4.854;2023-03-01T03:29:00;-1.60;99.90
69679;DHT22;56915;52.046;4.854;2023-03-01T03:31:27;-1.60;99.90
69679;DHT22;56915;52.046;4.854;2023-03-01T03:33:55;-1.60;99.90
69679;DHT22;56915;52.046;4.854;2023-03-01T03:36:24;-1.70;99.90
69679;DHT22;56915;52.046;4.854;2023-03-01T03:38:51;-1.70;99.90
69679;DHT22;56915;52.046;4.854;2023-03-01T03:41:18;-1.70;99.90
69679;DHT22;56915;52.046;4.854;2023-03-01T03:43:45;-1.70;99.90
69679;DHT22;56915;52.046;4.854;2023-03-01T03:46:12;-1.70;99.90
69679;DHT22;56915;52.046;4.854;2023-03-01T03:48:41;-1.70;99.90
69679;DHT22;56915;52.046;4.854;2023-03-01T03:51:13;-1.70;99.90
69679;DHT22;56915;52.046;4.854;2023-03-01T03:53:42;-1.70;99.90
69679;DHT22;56915;52.046;4.854;2023-03-01T03:56:09;-1.70;99.90
69679;DHT22;56915;52.046;4.854;2023-03-01T03:58:36;-1.70;99.90
69679;DHT22;56915;52.046;4.854;2023-03-01T04:01:03;-1.70;99.90
69679;DHT22;56915;52.046;4.854;2023-03-01T04:03:31;-1.80;99.90
69679;DHT22;56915;52.046;4.854;2023-03-01T04:05:59;-1.80;99.90
69679;DHT22;56915;52.046;4.854;2023-03-01T04:08:27;-1.90;99.90
69679;DHT22;56915;52.046;4.854;2023-03-01T04:11:00;-1.90;99.90
69679;DHT22;56915;52.046;4.854;2023-03-01T04:13:47;-1.90;99.90
69679;DHT22;56915;52.046;4.854;2023-03-01T04:16:14;-1.80;99.90
69679;DHT22;56915;52.046;4.854;2023-03-01T04:18:41;-1.80;99.90
69679;DHT22;56915;52.046;4.854;2023-03-01T04:21:08;-1.80;99.90
69679;DHT22;56915;52.046;4.854;2023-03-01T04:23:35;-1.80;99.90
69679;DHT22;56915;52.046;4.854;2023-03-01T04:26:02;-1.80;99.90
69679;DHT22;56915;52.046;4.854;2023-03-01T04:28:35;-1.80;99.90
69679;DHT22;56915;52.046;4.854;2023-03-01T04:31:08;-1.80;99.90
69679;DHT22;56915;52.046;4.854;2023-03-01T04:33:53;-1.80;99.90
69679;DHT22;56915;52.046;4.854;2023-03-01T04:36:24;-1.80;99.90
69679;DHT22;56915;52.046;4.854;2023-03-01T04:38:51;-1.70;99.90
69679;DHT22;56915;52.046;4.854;2023-03-01T04:41:21;-1.70;99.90
69679;DHT22;56915;52.046;4.854;2023-03-01T04:43:48;-1.80;99.90
69679;DHT22;56915;52.046;4.854;2023-03-01T04:46:18;-1.70;99.90
69679;DHT22;56915;52.046;4.854;2023-03-01T04:48:46;-1.70;99.90
69679;DHT22;56915;52.046;4.854;2023-03-01T04:51:14;-1.70;99.90
69679;DHT22;56915;52.046;4.854;2023-03-01T04:53:43;-1.70;99.90
69679;DHT22;56915;52.046;4.854;2023-03-01T04:56:10;-1.70;99.90
69679;DHT22;56915;52.046;4.854;2023-03-01T04:58:37;-1.80;99.90
69679;DHT22;56915;52.046;4.854;2023-03-01T05:01:12;-1.80;99.90
69679;DHT22;56915;52.046;4.854;2023-03-01T05:03:47;-1.90;99.90
69679;DHT22;56915;52.046;4.854;2023-03-01T05:06:15;-1.90;99.90
69679;DHT22;56915;52.046;4.854;2023-03-01T05:08:44;-2.00;99.90
69679;DHT22;56915;52.046;4.854;2023-03-01T05:11:11;-2.10;99.90
69679;DHT22;56915;52.046;4.854;2023-03-01T05:13:39;-2.20;99.90
69679;DHT22;56915;52.046;4.854;2023-03-01T05:16:07;-2.20;99.90
69679;DHT22;56915;52.046;4.854;2023-03-01T05:18:38;-2.20;99.90
69679;DHT22;56915;52.046;4.854;2023-03-01T05:21:11;-2.10;99.90
69679;DHT22;56915;52.046;4.854;2023-03-01T05:23:39;-2.10;99.90
69679;DHT22;56915;52.046;4.854;2023-03-01T05:26:06;-2.10;99.90
69679;DHT22;56915;52.046;4.854;2023-03-01T05:28:41;-2.20;99.90
69679;DHT22;56915;52.046;4.854;2023-03-01T05:31:08;-2.30;99.90
69679;DHT22;56915;52.046;4.854;2023-03-01T05:33:37;-2.40;99.90
69679;DHT22;56915;52.046;4.854;2023-03-01T05:36:08;-2.50;99.90
69679;DHT22;56915;52.046;4.854;2023-03-01T05:38:36;-2.60;99.90
69679;DHT22;56915;52.046;4.854;2023-03-01T05:41:03;-2.70;99.90
69679;DHT22;56915;52.046;4.854;2023-03-01T05:43:31;-2.80;99.90
69679;DHT22;56915;52.046;4.854;2023-03-01T05:46:01;-2.90;99.90
69679;DHT22;56915;52.046;4.854;2023-03-01T05:48:28;-3.00;99.90
69679;DHT22;56915;52.046;4.854;2023-03-01T05:50:55;-3.00;99.90
69679;DHT22;56915;52.046;4.854;2023-03-01T05:53:26;-3.10;99.90
69679;DHT22;56915;52.046;4.854;2023-03-01T05:55:53;-3.10;99.90
69679;DHT22;56915;52.046;4.854;2023-03-01T05:58:20;-3.20;99.90
69679;DHT22;56915;52.046;4.854;2023-03-01T06:00:48;-3.20;99.90
69679;DHT22;56915;52.046;4.854;2023-03-01T06:03:16;-3.20;99.90
69679;DHT22;56915;52.046;4.854;2023-03-01T06:05:44;-3.10;99.90
69679;DHT22;56915;52.046;4.854;2023-03-01T06:08:12;-3.00;99.90
69679;DHT22;56915;52.046;4.854;2023-03-01T06:10:39;-2.90;99.90
69679;DHT22;56915;52.046;4.854;2023-03-01T06:13:05;-2.90;99.90
69679;DHT22;56915;52.046;4.854;2023-03-01T06:15:32;-2.90;99.90
69679;DHT22;56915;52.046;4.854;2023-03-01T06:17:59;-2.80;99.90
69679;DHT22;56915;52.046;4.854;2023-03-01T06:20:28;-2.80;99.90
69679;DHT22;56915;52.046;4.854;2023-03-01T06:22:55;-2.90;99.90
69679;DHT22;56915;52.046;4.854;2023-03-01T06:25:24;-2.90;99.90
69679;DHT22;56915;52.046;4.854;2023-03-01T06:27:51;-2.90;99.90
69679;DHT22;56915;52.046;4.854;2023-03-01T06:30:20;-2.80;99.90
69679;DHT22;56915;52.046;4.854;2023-03-01T06:32:48;-2.80;99.90
69679;DHT22;56915;52.046;4.854;2023-03-01T06:35:16;-2.80;99.90
69679;DHT22;56915;52.046;4.854;2023-03-01T06:37:47;-2.80;99.90
69679;DHT22;56915;52.046;4.854;2023-03-01T06:40:15;-2.70;99.90
69679;DHT22;56915;52.046;4.854;2023-03-01T06:42:46;-2.60;99.90
69679;DHT22;56915;52.046;4.854;2023-03-01T06:45:16;-2.50;99.90
69679;DHT22;56915;52.046;4.854;2023-03-01T06:47:43;-2.50;99.90
69679;DHT22;56915;52.046;4.854;2023-03-01T06:50:11;-2.50;99.90
69679;DHT22;56915;52.046;4.854;2023-03-01T06:52:38;-2.50;99.90
69679;DHT22;56915;52.046;4.854;2023-03-01T06:55:05;-2.40;99.90
69679;DHT22;56915;52.046;4.854;2023-03-01T06:57:32;-2.30;99.90
69679;DHT22;56915;52.046;4.854;2023-03-01T06:59:59;-2.20;99.90
69679;DHT22;56915;52.046;4.854;2023-03-01T07:02:26;-2.20;99.90
69679;DHT22;56915;52.046;4.854;2023-03-01T07:04:54;-2.10;99.90
69679;DHT22;56915;52.046;4.854;2023-03-01T07:07:20;-2.10;99.90
69679;DHT22;56915;52.046;4.854;2023-03-01T07:09:48;-2.10;99.90
69679;DHT22;56915;52.046;4.854;2023-03-01T07:12:16;-2.00;99.90
69679;DHT22;56915;52.046;4.854;2023-03-01T07:14:43;-2.00;99.90
69679;DHT22;56915;52.046;4.854;2023-03-01T07:17:10;-1.90;99.90
69679;DHT22;56915;52.046;4.854;2023-03-01T07:19:37;-1.80;99.90
69679;DHT22;56915;52.046;4.854;2023-03-01T07:22:04;-1.70;99.90
69679;DHT22;56915;52.046;4.854;2023-03-01T07:24:34;-1.70;99.90
69679;DHT22;56915;52.046;4.854;2023-03-01T07:27:00;-1.60;99.90
69679;DHT22;56915;52.046;4.854;2023-03-01T07:29:27;-1.50;99.90
69679;DHT22;56915;52.046;4.854;2023-03-01T07:31:55;-1.40;99.90
69679;DHT22;56915;52.046;4.854;2023-03-01T07:34:22;-1.30;99.90
69679;DHT22;56915;52.046;4.854;2023-03-01T07:36:49;-1.20;99.90
69679;DHT22;56915;52.046;4.854;2023-03-01T07:39:16;-1.10;99.90
69679;DHT22;56915;52.046;4.854;2023-03-01T07:41:45;-1.00;99.90
69679;DHT22;56915;52.046;4.854;2023-03-01T07:44:11;-0.80;99.90
69679;DHT22;56915;52.046;4.854;2023-03-01T07:46:38;-0.80;99.90
69679;DHT22;56915;52.046;4.854;2023-03-01T07:49:05;-0.70;99.90
69679;DHT22;56915;52.046;4.854;2023-03-01T07:51:32;-0.60;99.90
69679;DHT22;56915;52.046;4.854;2023-03-01T07:53:59;-0.50;99.90
69679;DHT22;56915;52.046;4.854;2023-03-01T07:56:25;-0.50;99.90
69679;DHT22;56915;52.046;4.854;2023-03-01T07:58:52;-0.40;99.90
69679;DHT22;56915;52.046;4.854;2023-03-01T08:01:21;-0.30;99.90
69679;DHT22;56915;52.046;4.854;2023-03-01T08:03:48;-0.20;99.90
69679;DHT22;56915;52.046;4.854;2023-03-01T08:06:16;-0.10;99.90
69679;DHT22;56915;52.046;4.854;2023-03-01T08:08:43;0.00;99.90
69679;DHT22;56915;52.046;4.854;2023-03-01T08:11:12;0.10;99.90
69679;DHT22;56915;52.046;4.854;2023-03-01T08:13:39;0.20;99.90
69679;DHT22;56915;52.046;4.854;2023-03-01T08:16:09;0.30;99.90
69679;DHT22;56915;52.046;4.854;2023-03-01T08:18:36;0.40;99.90
69679;DHT22;56915;52.046;4.854;2023-03-01T08:21:11;0.50;99.90
69679;DHT22;56915;52.046;4.854;2023-03-01T08:23:39;0.60;99.90
69679;DHT22;56915;52.046;4.854;2023-03-01T08:26:15;0.70;99.90
69679;DHT22;56915;52.046;4.854;2023-03-01T08:28:42;0.80;99.90
69679;DHT22;56915;52.046;4.854;2023-03-01T08:31:20;0.90;99.90
69679;DHT22;56915;52.046;4.854;2023-03-01T08:33:49;1.00;99.90
69679;DHT22;56915;52.046;4.854;2023-03-01T08:36:23;1.10;99.90
69679;DHT22;56915;52.046;4.854;2023-03-01T08:38:51;1.20;99.90
69679;DHT22;56915;52.046;4.854;2023-03-01T08:41:18;1.20;99.90
69679;DHT22;56915;52.046;4.854;2023-03-01T08:43:44;1.30;99.90
69679;DHT22;56915;52.046;4.854;2023-03-01T08:46:12;1.40;99.90
69679;DHT22;56915;52.046;4.854;2023-03-01T08:48:40;1.50;99.90
69679;DHT22;56915;52.046;4.854;2023-03-01T08:51:11;1.60;99.90
69679;DHT22;56915;52.046;4.854;2023-03-01T08:53:39;1.70;99.90
69679;DHT22;56915;52.046;4.854;2023-03-01T08:56:07;1.80;99.90
69679;DHT22;56915;52.046;4.854;2023-03-01T08:58:36;2.00;99.90
69679;DHT22;56915;52.046;4.854;2023-03-01T09:01:08;2.10;99.90
69679;DHT22;56915;52.046;4.854;2023-03-01T09:03:35;2.30;99.90
69679;DHT22;56915;52.046;4.854;2023-03-01T09:06:03;2.40;99.90
69679;DHT22;56915;52.046;4.854;2023-03-01T09:08:33;2.60;99.90
69679;DHT22;56915;52.046;4.854;2023-03-01T09:11:08;2.70;99.90
69679;DHT22;56915;52.046;4.854;2023-03-01T09:13:36;2.80;99.90
69679;DHT22;56915;52.046;4.854;2023-03-01T09:16:04;3.00;99.90
69679;DHT22;56915;52.046;4.854;2023-03-01T09:18:32;3.00;99.90
69679;DHT22;56915;52.046;4.854;2023-03-01T09:21:26;3.20;99.90
69679;DHT22;56915;52.046;4.854;2023-03-01T09:24:11;3.30;99.90
69679;DHT22;56915;52.046;4.854;2023-03-01T09:26:40;3.40;99.70
69679;DHT22;56915;52.046;4.854;2023-03-01T09:29:07;3.40;98.10
69679;DHT22;56915;52.046;4.854;2023-03-01T09:31:36;3.50;97.60
69679;DHT22;56915;52.046;4.854;2023-03-01T09:34:03;3.60;96.90
69679;DHT22;56915;52.046;4.854;2023-03-01T09:36:30;3.60;96.70
69679;DHT22;56915;52.046;4.854;2023-03-01T09:38:57;3.70;94.90
69679;DHT22;56915;52.046;4.854;2023-03-01T09:41:37;3.70;94.40
69679;DHT22;56915;52.046;4.854;2023-03-01T09:44:31;3.80;93.00
69679;DHT22;56915;52.046;4.854;2023-03-01T09:47:00;3.90;92.90
69679;DHT22;56915;52.046;4.854;2023-03-01T09:49:27;4.00;91.60
69679;DHT22;56915;52.046;4.854;2023-03-01T09:54:41;4.10;91.30
69679;DHT22;56915;52.046;4.854;2023-03-01T10:02:52;4.40;88.70
69679;DHT22;56915;52.046;4.854;2023-03-01T10:10:43;4.70;85.00
69679;DHT22;56915;52.046;4.854;2023-03-01T10:13:14;4.80;81.20
69679;DHT22;56915;52.046;4.854;2023-03-01T10:15:51;4.90;80.20
69679;DHT22;56915;52.046;4.854;2023-03-01T10:18:30;5.00;83.10
69679;DHT22;56915;52.046;4.854;2023-03-01T10:21:01;5.10;74.30
69679;DHT22;56915;52.046;4.854;2023-03-01T10:23:31;5.20;72.60
69679;DHT22;56915;52.046;4.854;2023-03-01T10:26:34;5.20;72.40
69679;DHT22;56915;52.046;4.854;2023-03-01T10:29:09;5.30;72.00
69679;DHT22;56915;52.046;4.854;2023-03-01T10:31:49;5.30;70.50
69679;DHT22;56915;52.046;4.854;2023-03-01T10:34:22;5.40;71.70
69679;DHT22;56915;52.046;4.854;2023-03-01T10:36:57;5.40;69.50
69679;DHT22;56915;52.046;4.854;2023-03-01T10:39:25;5.40;67.40
69679;DHT22;56915;52.046;4.854;2023-03-01T10:42:04;5.50;65.00
69679;DHT22;56915;52.046;4.854;2023-03-01T10:44:39;5.50;64.70
69679;DHT22;56915;52.046;4.854;2023-03-01T10:47:33;5.50;64.30
69679;DHT22;56915;52.046;4.854;2023-03-01T10:50:05;5.60;61.60
69679;DHT22;56915;52.046;4.854;2023-03-01T10:52:37;5.60;60.80
69679;DHT22;56915;52.046;4.854;2023-03-01T10:57:40;5.70;58.30
69679;DHT22;56915;52.046;4.854;2023-03-01T11:00:21;5.70;58.90
69679;DHT22;56915;52.046;4.854;2023-03-01T11:05:26;5.90;58.60
69679;DHT22;56915;52.046;4.854;2023-03-01T11:07:58;6.10;59.40
69679;DHT22;56915;52.046;4.854;2023-03-01T11:10:33;6.10;58.40
69679;DHT22;56915;52.046;4.854;2023-03-01T11:13:08;6.20;57.20
69679;DHT22;56915;52.046;4.854;2023-03-01T11:15:39;6.20;55.20
69679;DHT22;56915;52.046;4.854;2023-03-01T11:18:20;6.30;53.60
69679;DHT22;56915;52.046;4.854;2023-03-01T11:20:48;6.20;52.70
69679;DHT22;56915;52.046;4.854;2023-03-01T11:23:18;6.30;51.80
69679;DHT22;56915;52.046;4.854;2023-03-01T11:25:55;6.30;51.20
69679;DHT22;56915;52.046;4.854;2023-03-01T11:28:23;6.30;51.60
69679;DHT22;56915;52.046;4.854;2023-03-01T11:30:54;6.30;51.70
69679;DHT22;56915;52.046;4.854;2023-03-01T11:38:46;6.40;51.00
69679;DHT22;56915;52.046;4.854;2023-03-01T11:41:23;6.50;51.00
69679;DHT22;56915;52.046;4.854;2023-03-01T11:44:05;6.60;52.60
69679;DHT22;56915;52.046;4.854;2023-03-01T11:49:35;6.80;51.60
69679;DHT22;56915;52.046;4.854;2023-03-01T12:23:33;6.90;47.80
69679;DHT22;56915;52.046;4.854;2023-03-01T12:40:48;7.10;47.30
69679;DHT22;56915;52.046;4.854;2023-03-01T12:49:02;7.20;47.20
69679;DHT22;56915;52.046;4.854;2023-03-01T12:51:32;7.30;48.00
69679;DHT22;56915;52.046;4.854;2023-03-01T12:54:07;7.30;48.40
69679;DHT22;56915;52.046;4.854;2023-03-01T12:56:37;7.50;47.60
69679;DHT22;56915;52.046;4.854;2023-03-01T12:59:16;7.50;48.30
69679;DHT22;56915;52.046;4.854;2023-03-01T13:04:53;7.70;46.70
69679;DHT22;56915;52.046;4.854;2023-03-01T13:07:44;7.80;46.40
69679;DHT22;56915;52.046;4.854;2023-03-01T13:10:26;7.80;46.70
69679;DHT22;56915;52.046;4.854;2023-03-01T13:18:00;7.80;44.80
69679;DHT22;56915;52.046;4.854;2023-03-01T13:20:45;7.80;44.10
69679;DHT22;56915;52.046;4.854;2023-03-01T13:26:14;7.70;44.60
69679;DHT22;56915;52.046;4.854;2023-03-01T13:33:52;7.60;43.90
69679;DHT22;56915;52.046;4.854;2023-03-01T13:39:02;7.70;43.90
69679;DHT22;56915;52.046;4.854;2023-03-01T13:44:30;7.80;43.30
69679;DHT22;56915;52.046;4.854;2023-03-01T13:52:38;7.80;41.60
69679;DHT22;56915;52.046;4.854;2023-03-01T13:55:32;7.80;42.20
69679;DHT22;56915;52.046;4.854;2023-03-01T13:58:14;7.80;42.50
69679;DHT22;56915;52.046;4.854;2023-03-01T14:00:41;7.90;42.40
69679;DHT22;56915;52.046;4.854;2023-03-01T14:03:12;7.90;42.30
69679;DHT22;56915;52.046;4.854;2023-03-01T14:05:41;7.90;42.50
69679;DHT22;56915;52.046;4.854;2023-03-01T14:08:21;7.90;43.30
69679;DHT22;56915;52.046;4.854;2023-03-01T14:10:57;7.90;42.30
69679;DHT22;56915;52.046;4.854;2023-03-01T14:16:19;8.00;41.20
69679;DHT22;56915;52.046;4.854;2023-03-01T14:24:55;8.00;41.20
69679;DHT22;56915;52.046;4.854;2023-03-01T14:27:25;8.00;40.10
69679;DHT22;56915;52.046;4.854;2023-03-01T14:30:00;8.10;40.30
69679;DHT22;56915;52.046;4.854;2023-03-01T14:32:30;8.00;38.80
69679;DHT22;56915;52.046;4.854;2023-03-01T14:34:59;8.00;39.00
69679;DHT22;56915;52.046;4.854;2023-03-01T14:37:30;8.00;39.00
69679;DHT22;56915;52.046;4.854;2023-03-01T14:39:59;8.10;39.90
69679;DHT22;56915;52.046;4.854;2023-03-01T14:42:34;8.20;40.10
69679;DHT22;56915;52.046;4.854;2023-03-01T14:45:02;8.20;39.80
69679;DHT22;56915;52.046;4.854;2023-03-01T14:47:32;8.10;38.90
69679;DHT22;56915;52.046;4.854;2023-03-01T14:50:25;8.10;39.60
69679;DHT22;56915;52.046;4.854;2023-03-01T14:52:58;8.10;40.40
69679;DHT22;56915;52.046;4.854;2023-03-01T14:55:33;8.10;40.50
69679;DHT22;56915;52.046;4.854;2023-03-01T14:58:04;8.10;41.30
69679;DHT22;56915;52.046;4.854;2023-03-01T15:00:33;8.10;40.10
69679;DHT22;56915;52.046;4.854;2023-03-01T15:03:11;8.10;39.10
69679;DHT22;56915;52.046;4.854;2023-03-01T15:05:41;8.10;39.40
69679;DHT22;56915;52.046;4.854;2023-03-01T15:08:18;8.10;38.50
69679;DHT22;56915;52.046;4.854;2023-03-01T15:11:27;8.20;39.00
69679;DHT22;56915;52.046;4.854;2023-03-01T15:13:52;8.20;39.10
69679;DHT22;56915;52.046;4.854;2023-03-01T15:16:32;8.20;39.30
69679;DHT22;56915;52.046;4.854;2023-03-01T15:19:00;8.20;39.40
69679;DHT22;56915;52.046;4.854;2023-03-01T15:21:31;8.20;39.40
69679;DHT22;56915;52.046;4.854;2023-03-01T15:26:59;8.20;39.40
69679;DHT22;56915;52.046;4.854;2023-03-01T15:29:34;8.20;39.80
69679;DHT22;56915;52.046;4.854;2023-03-01T15:32:28;8.20;40.00
69679;DHT22;56915;52.046;4.854;2023-03-01T15:34:58;8.20;40.90
69679;DHT22;56915;52.046;4.854;2023-03-01T15:37:45;8.10;40.40
69679;DHT22;56915;52.046;4.854;2023-03-01T15:40:27;8.10;40.10
69679;DHT22;56915;52.046;4.854;2023-03-01T15:43:06;8.10;40.70
69679;DHT22;56915;52.046;4.854;2023-03-01T15:45:33;8.00;40.50
69679;DHT22;56915;52.046;4.854;2023-03-01T15:48:20;8.00;41.00
69679;DHT22;56915;52.046;4.854;2023-03-01T15:50:55;7.90;41.20
69679;DHT22;56915;52.046;4.854;2023-03-01T15:53:23;7.90;40.30
69679;DHT22;56915;52.046;4.854;2023-03-01T15:55:50;7.80;40.50
69679;DHT22;56915;52.046;4.854;2023-03-01T15:58:20;7.80;39.70
69679;DHT22;56915;52.046;4.854;2023-03-01T16:00:48;7.70;39.80
69679;DHT22;56915;52.046;4.854;2023-03-01T16:03:27;7.70;39.60
69679;DHT22;56915;52.046;4.854;2023-03-01T16:05:54;7.60;39.20
69679;DHT22;56915;52.046;4.854;2023-03-01T16:08:20;7.50;39.60
69679;DHT22;56915;52.046;4.854;2023-03-01T16:10:48;7.50;39.90
69679;DHT22;56915;52.046;4.854;2023-03-01T16:13:16;7.40;39.40
69679;DHT22;56915;52.046;4.854;2023-03-01T16:15:44;7.40;39.20
69679;DHT22;56915;52.046;4.854;2023-03-01T16:18:11;7.40;39.30
69679;DHT22;56915;52.046;4.854;2023-03-01T16:20:39;7.30;40.10
69679;DHT22;56915;52.046;4.854;2023-03-01T16:23:08;7.30;40.60
69679;DHT22;56915;52.046;4.854;2023-03-01T16:25:36;7.20;40.90
69679;DHT22;56915;52.046;4.854;2023-03-01T16:28:04;7.20;41.40
69679;DHT22;56915;52.046;4.854;2023-03-01T16:30:36;7.10;41.90
69679;DHT22;56915;52.046;4.854;2023-03-01T16:33:03;7.10;42.50
69679;DHT22;56915;52.046;4.854;2023-03-01T16:35:50;7.00;42.90
69679;DHT22;56915;52.046;4.854;2023-03-01T16:38:17;7.00;43.10
69679;DHT22;56915;52.046;4.854;2023-03-01T16:40:49;6.90;43.30
69679;DHT22;56915;52.046;4.854;2023-03-01T16:43:16;6.80;44.30
69679;DHT22;56915;52.046;4.854;2023-03-01T16:45:43;6.80;43.40
69679;DHT22;56915;52.046;4.854;2023-03-01T16:48:11;6.70;43.40
69679;DHT22;56915;52.046;4.854;2023-03-01T16:50:38;6.70;43.80
69679;DHT22;56915;52.046;4.854;2023-03-01T16:53:05;6.60;44.10
69679;DHT22;56915;52.046;4.854;2023-03-01T16:55:32;6.50;44.20
69679;DHT22;56915;52.046;4.854;2023-03-01T16:58:00;6.40;44.40
69679;DHT22;56915;52.046;4.854;2023-03-01T17:00:27;6.30;44.50
69679;DHT22;56915;52.046;4.854;2023-03-01T17:02:54;6.30;45.60
69679;DHT22;56915;52.046;4.854;2023-03-01T17:05:21;6.20;45.00
69679;DHT22;56915;52.046;4.854;2023-03-01T17:07:50;6.10;45.20
69679;DHT22;56915;52.046;4.854;2023-03-01T17:10:17;6.00;46.60
69679;DHT22;56915;52.046;4.854;2023-03-01T17:12:44;5.90;46.00
69679;DHT22;56915;52.046;4.854;2023-03-01T17:15:13;5.80;46.10
69679;DHT22;56915;52.046;4.854;2023-03-01T17:17:40;5.70;46.50
69679;DHT22;56915;52.046;4.854;2023-03-01T17:20:08;5.60;46.80
69679;DHT22;56915;52.046;4.854;2023-03-01T17:22:35;5.50;47.10
69679;DHT22;56915;52.046;4.854;2023-03-01T17:25:02;5.40;47.50
69679;DHT22;56915;52.046;4.854;2023-03-01T17:27:28;5.30;47.90
69679;DHT22;56915;52.046;4.854;2023-03-01T17:29:55;5.20;48.00
69679;DHT22;56915;52.046;4.854;2023-03-01T17:32:22;5.10;48.50
69679;DHT22;56915;52.046;4.854;2023-03-01T17:34:49;5.10;48.70
69679;DHT22;56915;52.046;4.854;2023-03-01T17:37:16;5.00;48.90
69679;DHT22;56915;52.046;4.854;2023-03-01T17:39:43;4.90;49.10
69679;DHT22;56915;52.046;4.854;2023-03-01T17:42:10;4.80;49.30
69679;DHT22;56915;52.046;4.854;2023-03-01T17:44:37;4.60;49.70
69679;DHT22;56915;52.046;4.854;2023-03-01T17:47:04;4.50;51.00
69679;DHT22;56915;52.046;4.854;2023-03-01T17:49:32;4.40;51.20
69679;DHT22;56915;52.046;4.854;2023-03-01T17:51:59;4.40;50.80
69679;DHT22;56915;52.046;4.854;2023-03-01T17:54:26;4.30;51.00
69679;DHT22;56915;52.046;4.854;2023-03-01T17:56:53;4.30;51.00
69679;DHT22;56915;52.046;4.854;2023-03-01T17:59:21;4.20;51.10
69679;DHT22;56915;52.046;4.854;2023-03-01T18:01:48;4.00;52.10
69679;DHT22;56915;52.046;4.854;2023-03-01T18:04:15;3.90;51.60
69679;DHT22;56915;52.046;4.854;2023-03-01T18:06:43;3.80;52.80
69679;DHT22;56915;52.046;4.854;2023-03-01T18:09:14;3.70;52.20